joomla templates top joomla templates template joomla

King Air Abend

Wetterbeurteilung mit Hilfe Webcam und ATIS

 

Webcam 1Webcam 2

(Zum vergrößern auf das Bild klicken)

Wetteranzeige

Aktuelles Platzwetter Stand 10.12.2019 02:24Z

AvgMin / Max
Windrichtung290 Deg260 / 330 Deg
Windgeschwindigkeit6 kt3 / 11 kt
Sichtweite>10000 m
Temperatur2 °C
Taupunkt-1 °C
Feuchte84 %
QNH1018.5 hPa
QFE964.8 hPa
WolkenSCT041 SCT048 BKN060

Aerodrome Terminal Information Service (ATIS) Coburg

METAR
EDQC 100220Z AUTO 29008KT 260V330 9999 FEW041 SCT048 SCT060 02/M01 Q1018=

Wetterverlauf

Notam

C0503/18 - COBURG INFO CHANGED TO 128.680 (8.33 KHZ). 28 FEB 12:22 2018 UNTIL PERM. CREATED:
28 FEB 12:22 2018

Windvorhersage

Verkehrslandeplatz Coburg Brandensteinsebene
Tower
Zur Brandensteinsebene
96450 Coburg

 

Telefon +49 (0) 95 61 / 9 20 98
Telefax +49 (0) 95 61 / 9 20 06
EMail tower@vlp-coburg.de